Time;durP1;ratioP1;P1;durP2;ratioP2;P2;SDS_P1;SDS_P2;PMS_P1;PMS_P2;Temp;Humidity;BMP_temperature;BMP_pressure;BME280_temperature;BME280_humidity;BME280_pressure;Samples;Min_cycle;Max_cycle;Signal;HPM_P1;HPM_P2
2021/03/08 00:00:45;;;;;;;58.15;32.85;;;3.00;99.90;;;;;;4130851;28;20175;-74
2021/03/08 00:02:47;;;;;;;55.97;31.50;;;3.00;99.90;;;;;;4130574;28;20042;-74
2021/03/08 00:04:48;;;;;;;56.15;32.28;;;2.90;99.90;;;;;;4139107;28;20037;-74
2021/03/08 00:06:48;;;;;;;58.55;32.33;;;2.90;99.90;;;;;;4121586;28;20047;-74
2021/03/08 00:08:49;;;;;;;55.97;33.35;;;2.90;99.90;;;;;;4129181;28;20046;-74
2021/03/08 00:10:50;;;;;;;57.92;34.08;;;2.90;99.90;;;;;;4130854;28;20038;-74
2021/03/08 00:12:51;;;;;;;62.88;33.47;;;3.00;99.90;;;;;;4129101;28;20077;-75
2021/03/08 00:14:52;;;;;;;52.22;30.67;;;2.90;99.90;;;;;;4128627;28;20068;-74
2021/03/08 00:16:53;;;;;;;57.70;32.40;;;2.90;99.90;;;;;;4130385;28;20390;-74
2021/03/08 00:18:54;;;;;;;54.72;33.45;;;2.90;99.90;;;;;;4137986;28;20444;-74
2021/03/08 00:20:54;;;;;;;56.80;31.60;;;2.90;99.90;;;;;;4136195;28;20033;-74
2021/03/08 00:22:56;;;;;;;52.53;31.10;;;3.00;99.90;;;;;;4130462;28;20505;-74
2021/03/08 00:24:57;;;;;;;55.72;32.83;;;2.90;99.90;;;;;;4128767;28;20121;-74
2021/03/08 00:26:58;;;;;;;61.88;34.25;;;2.90;99.90;;;;;;4135582;28;20049;-74
2021/03/08 00:28:58;;;;;;;56.72;32.72;;;2.90;99.90;;;;;;4130942;28;20145;-74
2021/03/08 00:30:59;;;;;;;62.90;35.03;;;2.90;99.90;;;;;;4136508;28;20046;-74
2021/03/08 00:33:01;;;;;;;60.28;33.63;;;3.00;99.90;;;;;;4131673;28;20527;-74
2021/03/08 00:35:04;;;;;;;54.00;31.23;;;3.00;99.90;;;;;;4130171;28;20038;-75
2021/03/08 00:37:05;;;;;;;58.45;33.13;;;3.10;99.90;;;;;;4114125;28;20078;-74
2021/03/08 00:39:06;;;;;;;58.47;33.80;;;3.00;99.90;;;;;;4129904;28;20117;-75
2021/03/08 00:41:07;;;;;;;58.75;35.08;;;3.00;99.90;;;;;;4133978;28;20088;-74
2021/03/08 00:43:08;;;;;;;58.10;32.90;;;3.00;99.90;;;;;;4135779;28;20041;-74
2021/03/08 00:45:18;;;;;;;56.15;33.67;;;2.90;99.90;;;;;;4114551;28;20042;-73
2021/03/08 00:47:22;;;;;;;57.65;34.58;;;3.00;99.90;;;;;;4126545;28;20133;-74
2021/03/08 00:49:23;;;;;;;59.88;36.50;;;3.10;99.90;;;;;;4130804;28;20045;-74
2021/03/08 00:51:23;;;;;;;59.15;34.90;;;3.10;99.90;;;;;;4141710;28;20497;-74
2021/03/08 00:53:24;;;;;;;62.13;34.25;;;3.10;99.90;;;;;;4137005;28;20049;-74
2021/03/08 00:55:26;;;;;;;60.33;34.67;;;3.20;99.90;;;;;;4134118;28;20042;-73
2021/03/08 00:57:27;;;;;;;56.97;33.20;;;3.20;99.90;;;;;;4113888;28;20046;-74
2021/03/08 00:59:28;;;;;;;69.65;35.17;;;3.20;99.90;;;;;;4115693;28;20038;-74
2021/03/08 01:01:29;;;;;;;59.97;33.95;;;3.10;99.90;;;;;;4129566;28;20093;-74
2021/03/08 01:03:29;;;;;;;65.20;35.83;;;3.00;99.90;;;;;;4133704;28;20040;-74
2021/03/08 01:05:30;;;;;;;62.97;34.22;;;3.00;99.90;;;;;;4142524;28;20042;-74
2021/03/08 01:07:31;;;;;;;58.47;33.63;;;3.10;99.90;;;;;;4116648;28;20493;-74
2021/03/08 01:09:32;;;;;;;61.20;33.85;;;3.10;99.90;;;;;;4129815;28;20042;-74
2021/03/08 01:11:34;;;;;;;63.15;35.95;;;3.00;99.90;;;;;;4131374;28;20057;-74
2021/03/08 01:13:35;;;;;;;51.50;32.70;;;3.00;99.90;;;;;;4129516;28;20141;-74
2021/03/08 01:15:36;;;;;;;63.80;37.33;;;2.90;99.90;;;;;;4146002;28;20038;-74
2021/03/08 01:17:37;;;;;;;56.42;34.38;;;3.00;99.90;;;;;;4129624;28;20046;-73
2021/03/08 01:19:38;;;;;;;62.10;33.28;;;3.00;99.90;;;;;;4131732;28;20097;-74
2021/03/08 01:21:39;;;;;;;59.05;34.53;;;3.00;99.90;;;;;;4118592;28;20038;-74
2021/03/08 01:23:40;;;;;;;61.22;35.97;;;3.00;99.90;;;;;;4139866;28;20049;-75
2021/03/08 01:25:41;;;;;;;60.30;33.35;;;3.00;99.90;;;;;;4111106;28;20429;-74
2021/03/08 01:27:43;;;;;;;58.22;33.03;;;3.00;99.90;;;;;;4133587;28;20052;-74
2021/03/08 01:29:43;;;;;;;60.47;33.53;;;2.90;99.90;;;;;;4136899;28;20100;-74
2021/03/08 01:31:44;;;;;;;62.15;35.85;;;2.90;99.90;;;;;;4129676;28;20046;-74
2021/03/08 01:33:45;;;;;;;59.17;34.15;;;2.90;99.90;;;;;;4111497;28;20047;-74
2021/03/08 01:35:46;;;;;;;65.30;39.05;;;2.90;99.90;;;;;;4127923;28;20044;-74
2021/03/08 01:37:47;;;;;;;63.33;37.53;;;2.90;99.90;;;;;;4128086;28;20050;-75
2021/03/08 01:39:48;;;;;;;56.88;34.15;;;2.90;99.90;;;;;;4127301;28;20034;-74
2021/03/08 01:41:49;;;;;;;61.90;34.83;;;3.00;99.90;;;;;;4122506;28;20049;-74
2021/03/08 01:43:50;;;;;;;58.72;33.88;;;2.90;99.90;;;;;;4131131;28;20129;-74
2021/03/08 01:45:51;;;;;;;64.18;36.45;;;2.90;99.90;;;;;;4126854;28;20049;-74
2021/03/08 01:47:52;;;;;;;59.22;33.65;;;3.00;99.90;;;;;;4135065;28;20429;-74
2021/03/08 01:49:53;;;;;;;58.08;35.22;;;2.90;99.90;;;;;;4098681;28;20510;-75
2021/03/08 01:51:54;;;;;;;58.78;33.60;;;2.90;99.90;;;;;;4149474;28;20045;-74
2021/03/08 01:53:55;;;;;;;60.03;33.15;;;3.00;99.90;;;;;;4113619;28;20050;-75
2021/03/08 01:55:57;;;;;;;54.08;31.77;;;3.00;99.90;;;;;;4129351;28;20050;-74
2021/03/08 01:57:58;;;;;;;57.55;35.15;;;3.00;99.90;;;;;;4134285;28;20436;-74
2021/03/08 01:59:59;;;;;;;59.15;35.42;;;3.10;99.90;;;;;;4129226;28;20049;-74
2021/03/08 02:02:00;;;;;;;63.15;34.00;;;3.10;99.90;;;;;;4119341;28;20041;-74
2021/03/08 02:04:01;;;;;;;57.92;34.13;;;3.10;99.90;;;;;;4128371;28;20540;-74
2021/03/08 02:06:03;;;;;;;56.90;34.10;;;3.10;99.90;;;;;;4143237;28;20050;-74
2021/03/08 02:08:07;;;;;;;67.05;36.05;;;3.10;99.90;;;;;;4115792;28;20043;-74
2021/03/08 02:10:15;;;;;;;61.63;34.90;;;3.10;99.90;;;;;;4135229;28;20030;-74
2021/03/08 02:12:47;;;;;;;64.35;36.75;;;3.00;99.90;;;;;;4128921;28;20027;-74
2021/03/08 02:15:18;;;;;;;60.95;34.60;;;3.00;99.90;;;;;;4121614;28;20051;-74
2021/03/08 02:17:26;;;;;;;60.47;36.15;;;3.00;99.90;;;;;;4136670;28;20038;-74
2021/03/08 02:20:19;;;;;;;59.00;34.97;;;3.00;99.90;;;;;;4128543;28;20073;-73
2021/03/08 02:23:01;;;;;;;63.50;37.33;;;3.00;99.90;;;;;;4125993;28;20116;-74
2021/03/08 02:25:43;;;;;;;63.00;35.95;;;3.00;99.90;;;;;;4126192;28;20065;-74
2021/03/08 02:28:27;;;;;;;60.40;36.92;;;3.10;99.90;;;;;;4137084;28;20053;-73
2021/03/08 02:30:44;;;;;;;66.15;35.30;;;3.10;99.90;;;;;;4127086;28;20061;-73
2021/03/08 02:32:49;;;;;;;60.97;33.42;;;3.10;99.90;;;;;;4125669;28;20034;-73
2021/03/08 02:35:10;;;;;;;57.80;33.85;;;3.10;99.90;;;;;;4127549;28;20604;-74
2021/03/08 02:37:23;;;;;;;57.80;32.92;;;3.20;99.90;;;;;;4121985;28;20038;-74
2021/03/08 02:39:29;;;;;;;61.72;32.38;;;3.20;99.90;;;;;;4111603;28;20070;-74
2021/03/08 02:41:32;;;;;;;56.50;33.28;;;3.20;99.90;;;;;;4128559;28;20465;-74
2021/03/08 02:43:49;;;;;;;63.58;34.90;;;3.20;99.90;;;;;;4134343;28;20061;-73
2021/03/08 02:45:53;;;;;;;65.57;36.03;;;3.20;99.90;;;;;;4107081;28;20062;-73
2021/03/08 02:47:56;;;;;;;63.70;37.83;;;3.20;99.90;;;;;;4127680;28;20042;-73
2021/03/08 02:49:59;;;;;;;60.03;34.78;;;3.20;99.90;;;;;;4128343;28;20042;-74
2021/03/08 02:52:08;;;;;;;64.22;37.38;;;3.10;99.90;;;;;;4128633;28;20082;-74
2021/03/08 02:54:10;;;;;;;59.70;34.85;;;3.00;99.90;;;;;;4143600;28;20041;-74
2021/03/08 02:56:26;;;;;;;60.80;35.43;;;3.10;99.90;;;;;;4111901;28;20524;-73
2021/03/08 02:58:31;;;;;;;64.90;35.42;;;3.00;99.90;;;;;;4125675;28;20274;-74
2021/03/08 03:00:33;;;;;;;62.10;36.22;;;3.10;99.90;;;;;;4141353;28;20089;-73
2021/03/08 03:02:35;;;;;;;57.85;33.85;;;3.00;99.90;;;;;;4128265;28;20038;-74
2021/03/08 03:04:38;;;;;;;59.83;34.10;;;3.10;99.90;;;;;;4127710;28;20058;-74
2021/03/08 03:06:41;;;;;;;;;;;3.10;99.90;;;;;;4128749;28;20485;-73
2021/03/08 03:08:44;;;;;;;61.33;34.60;;;3.10;99.90;;;;;;4139980;28;19959;-74
2021/03/08 03:10:45;;;;;;;61.00;33.38;;;3.20;99.90;;;;;;4128014;28;20046;-73
2021/03/08 03:12:47;;;;;;;57.60;33.55;;;3.20;99.90;;;;;;4127492;28;20042;-74
2021/03/08 03:14:49;;;;;;;58.13;34.35;;;3.20;99.90;;;;;;4128090;28;20043;-74
2021/03/08 03:16:56;;;;;;;56.80;35.15;;;3.20;99.90;;;;;;4127881;28;20476;-74
2021/03/08 03:19:00;;;;;;;61.65;34.67;;;3.20;99.90;;;;;;4127945;28;20038;-74
2021/03/08 03:21:04;;;;;;;58.08;33.95;;;3.20;99.90;;;;;;4129184;28;20030;-74
2021/03/08 03:23:08;;;;;;;64.65;35.95;;;3.10;99.90;;;;;;4127562;28;20034;-74
2021/03/08 03:25:19;;;;;;;59.50;34.17;;;3.20;99.90;;;;;;4128181;28;20125;-73
2021/03/08 03:27:22;;;;;;;62.25;34.67;;;3.20;99.90;;;;;;4127905;28;20061;-74
2021/03/08 03:29:23;;;;;;;61.60;35.10;;;3.20;99.90;;;;;;4130648;28;20038;-73
2021/03/08 03:31:26;;;;;;;55.30;33.70;;;3.30;99.90;;;;;;4130957;28;20071;-74
2021/03/08 03:33:31;;;;;;;61.00;34.90;;;3.30;99.90;;;;;;4131430;28;20449;-74
2021/03/08 03:35:33;;;;;;;60.45;34.60;;;3.30;99.90;;;;;;4131459;28;20113;-74
2021/03/08 03:37:33;;;;;;;52.88;33.45;;;3.30;99.90;;;;;;4132511;28;20054;-74
2021/03/08 03:39:34;;;;;;;58.50;34.17;;;3.30;99.90;;;;;;4131393;28;20058;-74
2021/03/08 03:41:35;;;;;;;59.42;34.90;;;3.30;99.90;;;;;;4131290;28;20049;-73
2021/03/08 03:43:36;;;;;;;60.33;35.92;;;3.30;99.90;;;;;;4131084;28;20038;-74
2021/03/08 03:45:37;;;;;;;56.25;35.05;;;3.30;99.90;;;;;;4131079;28;20544;-74
2021/03/08 03:47:39;;;;;;;62.78;35.90;;;3.30;99.90;;;;;;4131288;28;20137;-74
2021/03/08 03:49:40;;;;;;;60.92;37.05;;;3.30;99.90;;;;;;4130782;28;20490;-73
2021/03/08 03:51:41;;;;;;;61.45;34.63;;;3.30;99.90;;;;;;4131333;28;20061;-74
2021/03/08 03:53:42;;;;;;;50.67;31.05;;;3.30;99.90;;;;;;4129745;28;20799;-74
2021/03/08 03:55:43;;;;;;;63.90;34.95;;;3.30;99.90;;;;;;4131000;28;20042;-74
2021/03/08 03:58:15;;;;;;;62.97;35.53;;;3.40;99.90;;;;;;4131245;28;20042;-75
2021/03/08 04:00:23;;;;;;;54.25;33.17;;;3.40;99.90;;;;;;4116482;28;20125;-74
2021/03/08 04:02:37;;;;;;;56.45;34.15;;;3.40;99.90;;;;;;4124250;28;20046;-73
2021/03/08 04:04:47;;;;;;;57.20;34.65;;;3.40;99.90;;;;;;4130604;28;20042;-74
2021/03/08 04:06:49;;;;;;;59.10;34.58;;;3.30;99.90;;;;;;4114418;28;20134;-74
2021/03/08 04:08:54;;;;;;;60.75;34.28;;;3.30;99.90;;;;;;4130558;28;20505;-74
2021/03/08 04:11:03;;;;;;;62.10;35.00;;;3.20;99.90;;;;;;4130291;28;20125;-74
2021/03/08 04:13:09;;;;;;;62.70;34.47;;;3.30;99.90;;;;;;4130501;28;20038;-73
2021/03/08 04:15:11;;;;;;;60.30;34.95;;;3.30;99.90;;;;;;4130519;28;20042;-74
2021/03/08 04:17:13;;;;;;;54.38;32.78;;;3.40;99.90;;;;;;4130609;28;20034;-74
2021/03/08 04:19:16;;;;;;;55.55;34.88;;;3.40;99.90;;;;;;4124192;28;20042;-74
2021/03/08 04:21:17;;;;;;;61.75;37.42;;;3.40;99.90;;;;;;4114316;28;20050;-74
2021/03/08 04:23:20;;;;;;;62.95;33.40;;;3.40;99.90;;;;;;4147060;28;20034;-74
2021/03/08 04:25:21;;;;;;;57.17;33.57;;;3.30;99.90;;;;;;4130677;28;20046;-74
2021/03/08 04:27:23;;;;;;;53.78;34.28;;;3.40;99.90;;;;;;4130475;28;20325;-74
2021/03/08 04:29:24;;;;;;;61.85;35.78;;;3.40;99.90;;;;;;4130589;28;20637;-74
2021/03/08 04:31:25;;;;;;;61.75;35.53;;;3.30;99.90;;;;;;4130349;28;20038;-74
2021/03/08 04:33:26;;;;;;;63.45;34.75;;;3.30;99.90;;;;;;4130364;28;20478;-74
2021/03/08 04:35:30;;;;;;;62.58;34.55;;;3.30;99.90;;;;;;4125497;28;20037;-73
2021/03/08 04:37:31;;;;;;;52.50;32.50;;;3.40;99.90;;;;;;4130329;28;20046;-73
2021/03/08 04:39:36;;;;;;;69.28;36.67;;;3.30;99.90;;;;;;4129667;28;20050;-73
2021/03/08 04:41:37;;;;;;;59.70;35.45;;;3.30;99.90;;;;;;4130704;28;20038;-73
2021/03/08 04:43:39;;;;;;;58.03;36.88;;;3.30;99.90;;;;;;4114157;28;20051;-74
2021/03/08 04:45:40;;;;;;;59.25;34.97;;;3.30;99.90;;;;;;4130209;28;20069;-74
2021/03/08 04:47:42;;;;;;;57.35;34.88;;;3.30;99.90;;;;;;4146796;28;20072;-74
2021/03/08 04:49:46;;;;;;;55.08;33.60;;;3.30;99.90;;;;;;4132550;28;20038;-74
2021/03/08 04:51:48;;;;;;;55.95;31.77;;;3.30;99.90;;;;;;4130699;28;20038;-73
2021/03/08 04:53:50;;;;;;;59.30;34.13;;;3.30;99.90;;;;;;4129758;28;20129;-74
2021/03/08 04:55:53;;;;;;;62.38;36.38;;;3.30;99.90;;;;;;4146208;28;20128;-74
2021/03/08 04:57:54;;;;;;;52.95;31.73;;;3.40;99.90;;;;;;4130296;28;20034;-74
2021/03/08 04:59:55;;;;;;;59.60;34.45;;;3.30;99.90;;;;;;4130138;28;20065;-74
2021/03/08 05:01:57;;;;;;;57.65;36.10;;;3.30;99.90;;;;;;4134381;28;20112;-74
2021/03/08 05:03:59;;;;;;;59.30;35.50;;;3.30;99.90;;;;;;4113761;28;20693;-74
2021/03/08 05:06:03;;;;;;;57.58;35.05;;;3.30;99.90;;;;;;4145669;28;20046;-75
2021/03/08 05:08:11;;;;;;;60.10;35.13;;;3.30;99.90;;;;;;4129729;28;20129;-74
2021/03/08 05:10:18;;;;;;;58.85;35.70;;;3.30;99.90;;;;;;4146056;28;20436;-74
2021/03/08 05:12:20;;;;;;;64.78;35.72;;;3.30;99.90;;;;;;4146086;28;20069;-75
2021/03/08 05:14:23;;;;;;;68.63;36.50;;;3.30;99.90;;;;;;4129795;28;20101;-74
2021/03/08 05:16:25;;;;;;;60.28;34.85;;;3.40;99.90;;;;;;4129470;28;20496;-74
2021/03/08 05:18:26;;;;;;;54.60;34.63;;;3.40;99.90;;;;;;4145987;28;20120;-73
2021/03/08 05:20:28;;;;;;;58.95;35.35;;;3.40;99.90;;;;;;4145964;28;20069;-74
2021/03/08 05:22:30;;;;;;;57.65;35.30;;;3.40;99.90;;;;;;4145327;28;20438;-74
2021/03/08 05:24:31;;;;;;;56.40;32.95;;;3.40;99.90;;;;;;4103898;28;20039;-74
2021/03/08 05:26:32;;;;;;;58.35;34.50;;;3.40;99.90;;;;;;4129682;28;20041;-75
2021/03/08 05:28:34;;;;;;;57.55;35.17;;;3.40;99.90;;;;;;4129578;28;20041;-74
2021/03/08 05:30:35;;;;;;;64.68;35.72;;;3.40;99.90;;;;;;4129779;28;20030;-74
2021/03/08 05:32:51;;;;;;;56.75;34.08;;;3.40;99.90;;;;;;4113695;28;20532;-74
2021/03/08 05:34:55;;;;;;;56.55;32.88;;;3.40;99.90;;;;;;4144790;28;20065;-74
2021/03/08 05:36:56;;;;;;;62.25;35.25;;;3.30;99.90;;;;;;4129532;28;20710;-74
2021/03/08 05:38:57;;;;;;;56.58;35.38;;;3.40;99.90;;;;;;4129425;28;20038;-74
2021/03/08 05:41:16;;;;;;;55.03;34.20;;;3.40;99.90;;;;;;4129318;28;20038;-74
2021/03/08 05:43:18;;;;;;;63.85;36.17;;;3.40;99.90;;;;;;4129165;28;20034;-74
2021/03/08 05:45:20;;;;;;;54.13;36.30;;;3.40;99.90;;;;;;4111888;28;20049;-74
2021/03/08 05:48:01;;;;;;;58.30;34.83;;;3.40;99.90;;;;;;4115369;28;20096;-74
2021/03/08 05:50:41;;;;;;;58.63;37.45;;;3.40;99.90;;;;;;4126282;28;20121;-74
2021/03/08 05:53:06;;;;;;;56.25;34.30;;;3.40;99.90;;;;;;4121544;28;20156;-74
2021/03/08 05:55:46;;;;;;;61.08;36.83;;;3.40;99.90;;;;;;4140745;28;20049;-74
2021/03/08 05:58:16;;;;;;;61.92;35.47;;;3.40;99.90;;;;;;4143957;28;20038;-74
2021/03/08 06:01:00;;;;;;;65.30;38.53;;;3.40;99.90;;;;;;4127852;28;20070;-74
2021/03/08 06:03:14;;;;;;;59.00;34.45;;;3.40;99.90;;;;;;4093597;28;20043;-75
2021/03/08 06:06:07;;;;;;;60.63;35.75;;;3.40;99.90;;;;;;4128465;28;20125;-74
2021/03/08 06:08:58;;;;;;;56.28;33.85;;;3.50;99.90;;;;;;4128455;28;20452;-74
2021/03/08 06:11:11;;;;;;;57.20;33.85;;;3.50;99.90;;;;;;4095664;28;20405;-74
2021/03/08 06:13:17;;;;;;;55.13;35.70;;;3.50;99.90;;;;;;4111384;28;20034;-74
2021/03/08 06:15:22;;;;;;;55.58;33.97;;;3.50;99.90;;;;;;4128339;28;20030;-75
2021/03/08 06:17:23;;;;;;;61.00;36.53;;;3.50;99.90;;;;;;4127970;28;20034;-73
2021/03/08 06:19:25;;;;;;;54.83;33.58;;;3.60;99.90;;;;;;4127206;28;20092;-74
2021/03/08 06:21:26;;;;;;;61.55;35.47;;;3.60;99.90;;;;;;4127441;28;20041;-74
2021/03/08 06:23:28;;;;;;;53.03;32.70;;;3.60;99.90;;;;;;4128553;28;20117;-74
2021/03/08 06:25:33;;;;;;;55.70;36.15;;;3.60;99.90;;;;;;4111908;28;20062;-74
2021/03/08 06:27:35;;;;;;;59.88;35.35;;;3.70;99.90;;;;;;4126393;28;20066;-74
2021/03/08 06:29:37;;;;;;;58.83;36.08;;;3.70;99.90;;;;;;4128936;28;20046;-74
2021/03/08 06:31:38;;;;;;;56.53;33.35;;;3.60;99.90;;;;;;4128078;28;20030;-75
2021/03/08 06:33:39;;;;;;;66.18;35.80;;;3.60;99.90;;;;;;4126999;28;20741;-73
2021/03/08 06:35:40;;;;;;;60.58;37.47;;;3.60;99.90;;;;;;4141316;28;20034;-74
2021/03/08 06:37:41;;;;;;;55.33;34.65;;;3.70;99.90;;;;;;4127581;28;20041;-74
2021/03/08 06:39:44;;;;;;;59.13;35.72;;;3.70;99.90;;;;;;4111546;28;20037;-73
2021/03/08 06:41:45;;;;;;;61.75;34.28;;;3.70;99.90;;;;;;4110671;28;20080;-74
2021/03/08 06:43:46;;;;;;;63.38;37.97;;;3.80;99.90;;;;;;4125915;28;20030;-74
2021/03/08 06:45:47;;;;;;;66.15;37.35;;;3.80;99.90;;;;;;4126563;28;20148;-75
2021/03/08 06:47:48;;;;;;;62.05;36.55;;;3.80;99.90;;;;;;4110661;28;20101;-73
2021/03/08 06:49:48;;;;;;;57.55;33.75;;;3.80;99.90;;;;;;4109583;28;20039;-74
2021/03/08 06:52:12;;;;;;;57.97;35.15;;;3.80;99.90;;;;;;4127746;28;20113;-73
2021/03/08 06:54:18;;;;;;;58.22;33.83;;;3.90;99.90;;;;;;4124808;28;20050;-75
2021/03/08 06:56:26;;;;;;;54.35;32.75;;;4.00;99.90;;;;;;4121590;28;20089;-73
2021/03/08 06:58:27;;;;;;;57.60;34.78;;;4.00;99.90;;;;;;4126136;28;20093;-73
2021/03/08 07:00:32;;;;;;;58.70;34.65;;;4.00;99.90;;;;;;4110094;28;20398;-73
2021/03/08 07:02:48;;;;;;;52.47;32.90;;;4.10;99.90;;;;;;4129439;28;20050;-74
2021/03/08 07:04:50;;;;;;;54.08;33.92;;;4.00;99.90;;;;;;4117586;28;20034;-73
2021/03/08 07:07:07;;;;;;;53.20;36.15;;;4.10;99.90;;;;;;4120495;28;20043;-74
2021/03/08 07:09:13;;;;;;;60.08;34.92;;;4.10;99.90;;;;;;4125187;28;20058;-76
2021/03/08 07:11:22;;;;;;;57.95;34.53;;;4.00;99.90;;;;;;4143626;28;20033;-74
2021/03/08 07:13:31;;;;;;;60.38;34.22;;;4.10;99.90;;;;;;4126964;28;20081;-74
2021/03/08 07:15:32;;;;;;;62.65;36.35;;;4.20;99.90;;;;;;4143555;28;20068;-73
2021/03/08 07:17:38;;;;;;;58.40;35.10;;;4.20;99.90;;;;;;4127398;28;20477;-74
2021/03/08 07:20:03;;;;;;;63.90;35.38;;;4.10;99.90;;;;;;4126995;28;20065;-75
2021/03/08 07:22:03;;;;;;;63.78;34.92;;;4.20;99.90;;;;;;4124037;28;20030;-75
2021/03/08 07:24:13;;;;;;;62.25;35.60;;;4.20;99.90;;;;;;4110180;28;20062;-73
2021/03/08 07:26:20;;;;;;;53.60;34.17;;;4.30;99.90;;;;;;4126888;28;20390;-75
2021/03/08 07:28:21;;;;;;;56.38;33.92;;;4.30;99.90;;;;;;4124844;28;20497;-74
2021/03/08 07:30:26;;;;;;;56.97;35.47;;;4.40;99.90;;;;;;4121544;28;20069;-74
2021/03/08 07:34:47;;;;;;;56.22;34.42;;;4.40;99.90;;;;;;4121051;28;20390;-74
2021/03/08 07:37:01;;;;;;;60.03;35.97;;;4.40;99.90;;;;;;4109146;28;20053;-74
2021/03/08 07:39:16;;;;;;;56.47;34.17;;;4.60;99.90;;;;;;4195189;28;20025;-75
2021/03/08 07:41:19;;;;;;;51.28;32.47;;;4.60;99.90;;;;;;4113534;28;20375;-74
2021/03/08 07:43:23;;;;;;;55.97;34.95;;;4.60;99.90;;;;;;4116662;28;20110;-75
2021/03/08 07:45:40;;;;;;;64.28;36.38;;;4.60;99.90;;;;;;4109820;28;20035;-75
2021/03/08 07:47:41;;;;;;;48.60;32.78;;;4.70;99.90;;;;;;4109748;28;20042;-75
2021/03/08 07:49:42;;;;;;;60.03;33.88;;;4.70;99.90;;;;;;4108616;28;20127;-75
2021/03/08 07:52:06;;;;;;;55.78;35.65;;;4.70;99.90;;;;;;4107099;28;20097;-74
2021/03/08 07:54:09;;;;;;;49.00;29.98;;;4.70;99.90;;;;;;4114362;28;20121;-73
2021/03/08 07:56:10;;;;;;;65.78;36.15;;;4.80;99.90;;;;;;4114354;28;20062;-72
2021/03/08 07:58:11;;;;;;;65.60;36.83;;;4.90;99.90;;;;;;4116020;28;20485;-73
2021/03/08 08:00:12;;;;;;;58.17;37.78;;;4.90;99.90;;;;;;4108843;28;20035;-73
2021/03/08 08:02:12;;;;;;;59.25;35.67;;;4.90;99.90;;;;;;4114949;28;20031;-73
2021/03/08 08:04:13;;;;;;;54.47;34.60;;;4.90;99.90;;;;;;4115291;28;20512;-73
2021/03/08 08:06:18;;;;;;;56.38;36.30;;;4.90;99.90;;;;;;4111693;28;20367;-74
2021/03/08 08:08:21;;;;;;;60.00;37.42;;;4.90;99.90;;;;;;4113014;28;20046;-73
2021/03/08 08:10:23;;;;;;;58.42;36.35;;;4.80;99.90;;;;;;4111019;28;20038;-73
2021/03/08 08:12:31;;;;;;;61.92;35.88;;;4.80;99.90;;;;;;4110850;28;20061;-74
2021/03/08 08:14:34;;;;;;;61.63;36.65;;;4.80;99.90;;;;;;4112390;28;20038;-74
2021/03/08 08:16:41;;;;;;;59.15;35.03;;;4.70;99.90;;;;;;4111579;28;20492;-73
2021/03/08 08:18:44;;;;;;;59.13;37.47;;;4.80;99.90;;;;;;4111751;28;20031;-73
2021/03/08 08:20:48;;;;;;;60.45;37.47;;;4.70;99.90;;;;;;4111282;28;20100;-74
2021/03/08 08:22:58;;;;;;;;;;;4.60;99.90;;;;;;4113149;28;20084;-73
2021/03/08 08:25:03;;;;;;;59.25;36.22;;;4.60;99.90;;;;;;4112067;28;19914;-74
2021/03/08 08:27:04;;;;;;;62.80;37.10;;;4.60;99.90;;;;;;4109191;28;20023;-73
2021/03/08 08:29:05;;;;;;;66.47;36.78;;;4.70;99.90;;;;;;4108264;28;20567;-74
2021/03/08 08:31:06;;;;;;;81.05;38.53;;;4.80;99.90;;;;;;4110294;28;20460;-74
2021/03/08 08:33:07;;;;;;;61.83;37.65;;;4.80;99.90;;;;;;4112155;28;20039;-74
2021/03/08 08:35:20;;;;;;;64.75;39.67;;;4.90;99.90;;;;;;4109184;28;20027;-75
2021/03/08 08:37:24;;;;;;;63.83;37.47;;;4.90;99.90;;;;;;4101457;28;20036;-73
2021/03/08 08:39:24;;;;;;;60.45;37.25;;;5.00;99.90;;;;;;4112033;28;20042;-73
2021/03/08 08:41:27;;;;;;;56.95;33.30;;;5.10;99.90;;;;;;4102053;28;20543;-73
2021/03/08 08:43:28;;;;;;;58.67;37.40;;;5.10;99.90;;;;;;4104348;28;20122;-73
2021/03/08 08:45:32;;;;;;;60.85;36.50;;;5.20;99.90;;;;;;4097434;28;20031;-73
2021/03/08 08:47:34;;;;;;;58.92;35.05;;;5.30;99.90;;;;;;4098683;28;20363;-73
2021/03/08 08:49:39;;;;;;;50.28;33.42;;;5.30;99.90;;;;;;4081072;28;20035;-74
2021/03/08 08:51:56;;;;;;;61.65;37.03;;;5.40;99.90;;;;;;4097982;28;20043;-74
2021/03/08 08:53:59;;;;;;;56.83;36.05;;;5.50;99.90;;;;;;4096854;28;20093;-73
2021/03/08 08:55:59;;;;;;;55.72;34.88;;;5.60;99.90;;;;;;4101431;28;20043;-73
2021/03/08 08:58:19;;;;;;;62.58;38.08;;;5.60;99.90;;;;;;4100864;28;20439;-73
2021/03/08 09:00:21;;;;;;;62.17;36.13;;;5.70;99.90;;;;;;4095268;28;20116;-74
2021/03/08 09:02:26;;;;;;;58.42;33.97;;;5.70;99.90;;;;;;4099951;28;20497;-74
2021/03/08 09:04:34;;;;;;;61.03;36.85;;;5.80;99.90;;;;;;4099589;28;20046;-74
2021/03/08 09:06:51;;;;;;;53.47;34.00;;;5.90;99.90;;;;;;4090041;28;20494;-74
2021/03/08 09:08:54;;;;;;;59.47;35.72;;;5.90;99.90;;;;;;4104572;28;20039;-74
2021/03/08 09:10:55;;;;;;;64.20;36.25;;;5.90;99.90;;;;;;4096301;28;20066;-74
2021/03/08 09:13:10;;;;;;;57.33;35.17;;;6.00;99.90;;;;;;4089634;28;20510;-74
2021/03/08 09:15:17;;;;;;;50.03;31.92;;;6.10;99.90;;;;;;4094294;28;20039;-74
2021/03/08 09:17:32;;;;;;;51.33;32.28;;;6.10;99.90;;;;;;4096329;28;20027;-74
2021/03/08 09:19:33;;;;;;;55.03;34.40;;;6.20;99.90;;;;;;4096900;28;20031;-74
2021/03/08 09:21:33;;;;;;;55.65;35.88;;;6.20;99.90;;;;;;4101702;28;20032;-74
2021/03/08 09:23:34;;;;;;;56.33;37.28;;;6.30;99.90;;;;;;4101160;28;20505;-74
2021/03/08 09:25:36;;;;;;;59.78;36.13;;;6.50;99.90;;;;;;4099757;28;20081;-74
2021/03/08 09:27:38;;;;;;;57.88;37.88;;;6.60;99.90;;;;;;4095986;28;20110;-74
2021/03/08 09:29:39;;;;;;;58.85;37.40;;;6.70;99.90;;;;;;4100282;28;20705;-74
2021/03/08 09:31:39;;;;;;;57.47;34.40;;;6.90;99.90;;;;;;4096984;28;20073;-75
2021/03/08 09:33:46;;;;;;;63.65;36.00;;;7.00;99.90;;;;;;4102638;28;20129;-74
2021/03/08 09:35:49;;;;;;;60.92;34.83;;;7.10;99.90;;;;;;4101874;28;20506;-74
2021/03/08 09:37:53;;;;;;;55.83;37.40;;;7.10;99.90;;;;;;4098841;28;20024;-74
2021/03/08 09:39:56;;;;;;;51.85;34.97;;;7.20;99.90;;;;;;4097927;28;20039;-74
2021/03/08 09:41:56;;;;;;;48.80;32.90;;;7.30;99.90;;;;;;4099351;28;20102;-74
2021/03/08 09:43:58;;;;;;;57.70;35.63;;;7.30;99.90;;;;;;4097323;28;20039;-74
2021/03/08 09:46:04;;;;;;;52.78;34.30;;;7.40;99.90;;;;;;4098368;28;20035;-74
2021/03/08 09:48:07;;;;;;;55.17;37.13;;;7.60;99.90;;;;;;4093514;28;20051;-75
2021/03/08 09:50:09;;;;;;;56.45;38.03;;;7.70;99.90;;;;;;4098974;28;20122;-74
2021/03/08 09:52:10;;;;;;;57.53;36.28;;;7.70;99.90;;;;;;4098227;28;20119;-74
2021/03/08 09:54:17;;;;;;;49.17;34.38;;;7.70;99.90;;;;;;4101042;28;20044;-74
2021/03/08 09:56:20;;;;;;;62.05;36.50;;;7.80;99.90;;;;;;4100171;28;20035;-75
2021/03/08 09:58:20;;;;;;;50.97;35.40;;;7.90;99.90;;;;;;4101565;28;20038;-75
2021/03/08 10:00:24;;;;;;;48.53;32.67;;;8.00;99.90;;;;;;4099499;28;20408;-74
2021/03/08 10:02:25;;;;;;;;;;;7.90;99.90;;;;;;4092114;28;20085;-74
2021/03/08 10:04:25;;;;;;;45.08;28.35;;;8.00;99.90;;;;;;4103313;28;19918;-74
2021/03/08 10:06:32;;;;;;;45.15;27.35;;;8.10;99.90;;;;;;4102573;28;20039;-74
2021/03/08 10:08:33;;;;;;;38.58;25.77;;;8.20;99.90;;;;;;4099378;28;20129;-75
2021/03/08 10:10:56;;;;;;;38.42;27.40;;;8.20;99.90;;;;;;4101214;28;20055;-74
2021/03/08 10:13:01;;;;;;;43.42;27.33;;;8.30;99.90;;;;;;4098711;28;20118;-74
2021/03/08 10:15:06;;;;;;;39.25;25.48;;;8.30;99.90;;;;;;4097712;28;20047;-74
2021/03/08 10:17:09;;;;;;;42.00;26.70;;;8.40;99.90;;;;;;4101451;28;20034;-74
2021/03/08 10:19:10;;;;;;;42.05;27.60;;;8.40;99.90;;;;;;4101432;28;20069;-76
2021/03/08 10:21:11;;;;;;;39.33;25.95;;;8.60;99.90;;;;;;4100855;28;20038;-74
2021/03/08 10:23:16;;;;;;;46.97;26.77;;;8.90;99.90;;;;;;4092668;28;20193;-74
2021/03/08 10:25:25;;;;;;;34.45;23.65;;;9.00;99.90;;;;;;4102939;28;20027;-74
2021/03/08 10:27:26;;;;;;;44.58;25.73;;;9.00;99.90;;;;;;4086724;28;20106;-74
2021/03/08 10:29:27;;;;;;;40.65;27.10;;;9.20;99.90;;;;;;4090074;28;20039;-72
2021/03/08 10:31:29;;;;;;;37.90;24.85;;;9.30;99.90;;;;;;4087108;28;20043;-75
2021/03/08 10:33:30;;;;;;;39.72;23.98;;;9.60;99.90;;;;;;4078617;28;20044;-73
2021/03/08 10:35:37;;;;;;;37.10;25.20;;;9.70;99.90;;;;;;4085698;28;20032;-74
2021/03/08 10:37:39;;;;;;;33.08;23.30;;;9.90;99.90;;;;;;4097460;28;20058;-74
2021/03/08 10:39:41;;;;;;;37.75;23.02;;;10.00;99.90;;;;;;4095129;28;20481;-74
2021/03/08 10:41:43;;;;;;;33.97;24.90;;;9.90;99.90;;;;;;4097152;28;20032;-75
2021/03/08 10:43:44;;;;;;;38.30;24.73;;;10.10;99.90;;;;;;4096078;28;20097;-75
2021/03/08 10:45:49;;;;;;;38.58;24.67;;;10.40;99.90;;;;;;4103908;28;20030;-75
2021/03/08 10:48:09;;;;;;;37.33;24.08;;;10.60;99.90;;;;;;4102483;28;20034;-74